Etusivu
METAR-TAF:

METAR-TAF

Lentoasemat :

Västeråsin lentoasema

Västerås, Ruotsi

Leveyspiiri: 59-35N, Pituuspiiri: 016-38E, korkeus merenpinnasta: 6 m

Tämänhetkinen sää

Tämä raportti tehtiin 39 minuuttia sitten, kello 22.50 UTC
Tuuli 3 kn pohjoisesta/koillisesta
Lämpötila -1°C
Kosteus 86%
Ilmanpaine 1034 hPa
Näkyvyys 10 km tai enemmän

METAR: ESOW 202250Z AUTO 02003KT 9999 FEW010/// OVC017/// M01/M03 Q1034

Aika: 00:29 (23:29 UTC)


TAF: puuttuu

Säähavainnot ja -ennusteet yli 4000 lentoasemalta (METAR- ja TAF-raportit).

Käytössä olevat sääasemat on merkitty karttaan keltaisilla ja punaisilla pisteillä.

Aseta hiiri pisteen päälle nähdäksesi sääaseman nimen.

Klikkaa sitten nähdäksesi säähavainnot ja -ennusteet.

Kartan vaihtaminen: klikkaa mustalla rastilla varustettuja vihreitä pisteitä, niin voit zoomata sisään; viivalla varustettua vihreää pistettä, niin voit zoomata ulos tai vihreitä nuolia, niin pääset viereisille kartoille.


METAR-TAF: